Flight Track Log - Related Links

Times and Time Zones

All times are in EDT time to prevent confusion due to time zone crossing. See the N33LA flight status page for this flight to view local times or setup timezone preferences in your user account.

Time Position Orientation Groundspeed Altitude Reporting Facility
EDT Latitude Longitude Course Direction KTS MPH feet Rate Location/Type
Tue 05:41:18 PM 33.5264 -88.6503 145° Southeast 124 143 3,700  Level Memphis Center
Tue 05:42:13 PM 33.5156 -88.6131 109° East 144 166 5,300 1,707 Climbing Memphis Center
Tue 05:43:14 PM 33.5189 -88.5558 86° East 161 185 7,000 1,475 Climbing Memphis Center
Tue 05:44:15 PM 33.5200 -88.4983 89° East 176 203 8,300 1,091 Climbing Memphis Center
Tue 05:45:15 PM 33.5211 -88.4336 89° East 198 228 9,200 992 Climbing Memphis Center
Tue 05:46:16 PM 33.5264 -88.3586 85° East 207 238 10,300 885 Climbing Memphis Center
Tue 05:47:17 PM 33.5294 -88.2914 87° East 210 242 11,000 344 Climbing Memphis Center
Tue 05:48:18 PM 33.5322 -88.2139 88° East 238 274 11,000  Level Memphis Center
Tue 05:49:19 PM 33.5389 -88.1267 85° East 249 287 11,000 33 Level Memphis Center
Tue 05:51:19 PM 33.5503 -87.9572 85° East 261 300 11,100 33 Climbing Atlanta Center
Tue 05:52:19 PM 33.5592 -87.8728 83° East 256 295 11,100  Level Atlanta Center
Tue 05:53:19 PM 33.5703 -87.7886 81° East 256 295 11,100  Level Atlanta Center
Tue 05:54:19 PM 33.5811 -87.7042 81° East 256 295 11,100  Level Atlanta Center
Tue 05:55:19 PM 33.5897 -87.6222 83° East 256 295 11,100  Level Atlanta Center
Tue 05:56:19 PM 33.5986 -87.5353 83° East 256 295 11,100  Level Atlanta Center
Tue 05:57:19 PM 33.6069 -87.4533 83° East 256 295 11,100  Level Atlanta Center
Tue 05:58:19 PM 33.6178 -87.3689 81° East 256 295 11,100  Level Atlanta Center
Tue 05:59:19 PM 33.6200 -87.2817 88° East 256 295 11,100  Level Atlanta Center
Tue 06:00:19 PM 33.6161 -87.1969 93° East 256 295 11,100  Level Atlanta Center
Tue 06:01:19 PM 33.6139 -87.1119 92° East 256 295 11,100  Level Atlanta Center
Tue 06:02:19 PM 33.6097 -87.0294 93° East 256 295 11,100  Level Atlanta Center
Tue 06:03:19 PM 33.6097 -86.9422 90° East 256 295 11,100  Level Atlanta Center
Tue 06:04:19 PM 33.6056 -86.8572 93° East 256 295 11,100  Level Atlanta Center
Tue 06:05:19 PM 33.6033 -86.7725 92° East 256 295 11,100  Level Atlanta Center
Tue 06:06:19 PM 33.6008 -86.6900 92° East 256 295 11,100  Level Atlanta Center
Tue 06:07:19 PM 33.5964 -86.6050 94° East 256 295 11,100  Level Atlanta Center
Tue 06:08:19 PM 33.5919 -86.5225 94° East 256 295 11,100  Level Atlanta Center
Tue 06:09:19 PM 33.5894 -86.4353 92° East 256 295 11,100  Level Atlanta Center
Tue 06:10:19 PM 33.5869 -86.3506 92° East 256 295 11,100 -50 Level Atlanta Center
Tue 06:11:19 PM 33.5842 -86.2656 92° East 256 295 11,000 -50 Descending Atlanta Center
Tue 06:12:19 PM 33.5794 -86.1781 94° East 256 295 11,000  Level Atlanta Center
Tue 06:13:19 PM 33.5789 -86.0933 90° East 256 295 11,000  Level Atlanta Center
Tue 06:14:19 PM 33.5781 -86.0086 91° East 256 295 11,000  Level Atlanta Center
Tue 06:15:19 PM 33.5919 -85.9242 79° East 256 295 11,000 -50 Level Atlanta Center
Tue 06:16:19 PM 33.6036 -85.8369 81° East 256 295 10,900 -400 Descending Atlanta Center
Tue 06:17:19 PM 33.6131 -85.7600 82° East 256 295 10,200 -1,050 Descending Atlanta Center
Tue 06:18:19 PM 33.6292 -85.6681 78° East 267 307 8,800 -1,550 Descending Atlanta Center
Tue 06:19:19 PM 33.6447 -85.5758 79° East 276 318 7,100 -1,700 Descending Atlanta Center
Tue 06:20:19 PM 33.6522 -85.4839 84° East 276 318 5,400 -1,050 Descending Atlanta Center
Tue 06:21:19 PM 33.6658 -85.3942 80° East 263 303 5,000 -200 Descending Atlanta Center
Tue 06:22:19 PM 33.6769 -85.3194 80° East 238 274 5,000  Level Atlanta Center
Tue 06:23:19 PM 33.6861 -85.2422 82° East 233 268 5,000  Level Atlanta Center
Tue 06:24:19 PM 33.6972 -85.1650 80° East 233 268 5,000 -400 Level Atlanta Center
Tue 06:25:19 PM 33.7083 -85.0853 80° East 238 274 4,200 -950 Descending Atlanta Center
Tue 06:26:19 PM 33.7175 -85.0053 82° East 238 274 3,100 -600 Descending Atlanta Center
Tue 06:27:19 PM 33.7283 -84.9356 79° East 226 260 3,000 -50 Descending Atlanta Center
Tue 06:28:19 PM 33.7350 -84.8731 83° East 195 224 3,000  Level Atlanta Center
Tue 06:28:47 PM 33.7333 -84.8333 93° East 196 226 3,000  Level Atlanta TRACON
Tue 06:29:41 PM 33.7500 -84.7833 68° East 200 230 3,000  Level Atlanta TRACON
Tue 06:30:53 PM 33.7500 -84.7000 90° East 183 211 3,000 -95 Level Atlanta TRACON
Tue 06:31:47 PM 33.7667 -84.6500 68° East 169 194 2,800 -450 Descending Atlanta TRACON
Tue 06:32:53 PM 33.7667 -84.6000 90° East 120 138 2,100 -600 Descending Atlanta TRACON
Tue 06:33:47 PM 33.7667 -84.5667 90° East 122 140 1,600 -556 Descending Atlanta TRACON
Tue 06:35:00 PM 33.7667 -84.5167 90° East  Level FlightAware Approximate
Tue 06:42:00 PM 33.7791 -84.5214 90° East  Level Estimated

Login

Don't have an account? Register now (free) for customized features, flight alerts, and more!